Time;durP1;ratioP1;P1;durP2;ratioP2;P2;SDS_P1;SDS_P2;PMS_P1;PMS_P2;Temp;Humidity;BMP_temperature;BMP_pressure;BME280_temperature;BME280_humidity;BME280_pressure;Samples;Min_cycle;Max_cycle;Signal;HPM_P1;HPM_P2
2022/08/28 00:00:51;;;;;;;6.50;3.60;;;17.80;99.90;;;;;;5100032;28;20438;-51
2022/08/28 00:03:24;;;;;;;7.93;3.67;;;17.80;99.90;;;;;;5100113;28;20488;-52
2022/08/28 00:05:53;;;;;;;6.00;3.87;;;17.80;99.90;;;;;;5096743;28;20496;-52
2022/08/28 00:08:24;;;;;;;6.33;3.87;;;17.80;99.90;;;;;;5098668;28;20634;-55
2022/08/28 00:10:51;;;;;;;7.17;2.90;;;17.80;99.90;;;;;;5097092;28;20954;-53
2022/08/28 00:13:21;;;;;;;11.30;4.57;;;17.90;99.90;;;;;;5097718;28;20762;-48
2022/08/28 00:15:51;;;;;;;6.20;2.80;;;17.80;99.90;;;;;;5098307;28;20521;-51
2022/08/28 00:18:19;;;;;;;5.87;2.90;;;17.80;99.90;;;;;;5099283;28;20460;-52
2022/08/28 00:20:48;;;;;;;4.20;2.90;;;17.80;99.90;;;;;;5099432;28;20504;-51
2022/08/28 00:23:17;;;;;;;6.80;3.30;;;17.80;99.90;;;;;;5098409;28;20607;-51
2022/08/28 00:25:48;;;;;;;8.77;3.27;;;17.80;99.90;;;;;;5096986;28;20506;-54
2022/08/28 00:28:17;;;;;;;6.30;2.67;;;17.70;99.90;;;;;;5097708;28;20493;-53
2022/08/28 00:30:49;;;;;;;11.13;3.20;;;17.60;99.90;;;;;;5097331;28;20534;-53
2022/08/28 00:33:20;;;;;;;5.27;2.93;;;17.60;99.90;;;;;;5097099;28;20888;-52
2022/08/28 00:35:48;;;;;;;7.00;3.03;;;17.60;99.90;;;;;;5095592;28;20753;-50
2022/08/28 00:38:18;;;;;;;4.70;3.03;;;17.50;99.90;;;;;;5098171;28;20468;-56
2022/08/28 00:40:47;;;;;;;4.80;3.40;;;17.50;99.90;;;;;;5098534;28;20430;-55
2022/08/28 00:43:26;;;;;;;11.60;4.47;;;17.40;99.90;;;;;;5092802;28;20491;-52
2022/08/28 00:45:59;;;;;;;6.30;3.50;;;17.40;99.90;;;;;;5095114;28;21694;-52
2022/08/28 00:48:29;;;;;;;10.10;3.90;;;17.30;99.90;;;;;;5096512;28;20562;-56
2022/08/28 00:53:45;;;;;;;10.47;4.00;;;17.30;99.90;;;;;;5096416;28;20883;-50
2022/08/28 00:56:13;;;;;;;6.50;3.90;;;17.20;99.90;;;;;;5097333;28;20540;-54
2022/08/28 00:58:43;;;;;;;4.90;2.83;;;17.30;99.90;;;;;;5097698;28;20485;-54
2022/08/28 01:01:11;;;;;;;9.27;3.47;;;17.30;99.90;;;;;;5096906;28;20453;-57
2022/08/28 01:03:38;;;;;;;7.20;3.50;;;17.20;99.90;;;;;;5096003;28;20506;-53
2022/08/28 01:06:09;;;;;;;7.20;3.47;;;17.20;99.90;;;;;;5096020;28;20911;-57
2022/08/28 01:08:40;;;;;;;12.23;4.40;;;17.20;99.90;;;;;;5093712;28;20495;-54
2022/08/28 01:11:14;;;;;;;6.60;3.57;;;17.10;99.90;;;;;;5096797;28;20496;-54
2022/08/28 01:13:45;;;;;;;5.80;4.13;;;17.10;99.90;;;;;;5097296;28;20518;-57
2022/08/28 01:16:14;;;;;;;6.70;3.77;;;17.00;99.90;;;;;;5098598;28;20484;-56
2022/08/28 01:18:41;;;;;;;7.20;3.70;;;17.10;99.90;;;;;;5098293;28;20438;-57
2022/08/28 01:21:15;;;;;;;7.93;3.40;;;17.10;99.90;;;;;;5098307;28;20580;-57
2022/08/28 01:23:53;;;;;;;5.80;3.30;;;17.10;99.90;;;;;;5098699;28;20466;-57
2022/08/28 01:26:20;;;;;;;6.13;3.80;;;17.10;99.90;;;;;;5098992;28;20431;-56
2022/08/28 01:28:48;;;;;;;5.50;3.50;;;17.10;99.90;;;;;;5097973;28;20461;-52
2022/08/28 01:31:17;;;;;;;7.30;3.60;;;17.10;99.90;;;;;;5098111;28;20469;-53
2022/08/28 01:33:49;;;;;;;6.47;4.07;;;17.10;99.90;;;;;;5097976;28;20495;-54
2022/08/28 01:36:18;;;;;;;8.10;3.80;;;17.10;99.90;;;;;;5098708;28;20488;-53
2022/08/28 01:38:49;;;;;;;9.37;4.10;;;17.00;99.90;;;;;;5097884;28;20485;-50
2022/08/28 01:41:17;;;;;;;6.40;4.50;;;17.00;99.90;;;;;;5097509;28;20465;-54
2022/08/28 01:43:45;;;;;;;8.70;4.47;;;16.90;99.90;;;;;;5097817;28;20491;-51
2022/08/28 01:46:12;;;;;;;5.50;3.53;;;16.90;99.90;;;;;;5098650;28;20850;-51
2022/08/28 01:48:44;;;;;;;5.60;3.87;;;16.90;99.90;;;;;;5097820;28;20846;-55
2022/08/28 01:51:13;;;;;;;6.53;4.43;;;16.80;99.90;;;;;;5097554;28;20720;-56
2022/08/28 01:53:42;;;;;;;6.37;4.13;;;16.90;99.90;;;;;;5097069;28;20457;-54
2022/08/28 01:56:13;;;;;;;11.97;4.07;;;16.90;99.90;;;;;;5098108;28;20464;-51
2022/08/28 01:58:42;;;;;;;7.97;3.80;;;16.90;99.90;;;;;;5098297;28;20787;-51
2022/08/28 02:01:10;;;;;;;12.30;4.50;;;16.80;99.90;;;;;;5096970;28;20989;-51
2022/08/28 02:03:38;;;;;;;6.10;3.40;;;16.80;99.90;;;;;;5097406;28;20487;-54
2022/08/28 02:06:05;;;;;;;8.20;3.83;;;16.80;99.90;;;;;;5097543;28;20434;-57
2022/08/28 02:08:33;;;;;;;8.23;4.47;;;16.80;99.90;;;;;;5098033;28;20471;-53
2022/08/28 02:11:01;;;;;;;7.70;4.17;;;16.60;99.90;;;;;;5097284;28;20533;-55
2022/08/28 02:13:30;;;;;;;6.20;4.07;;;16.60;99.90;;;;;;5097963;28;20488;-56
2022/08/28 02:15:59;;;;;;;7.67;4.30;;;16.60;99.90;;;;;;5097911;28;20469;-55
2022/08/28 02:18:26;;;;;;;5.57;3.60;;;16.50;99.90;;;;;;5097293;28;20467;-54
2022/08/28 02:20:54;;;;;;;5.90;4.20;;;16.40;99.90;;;;;;5097652;28;20537;-55
2022/08/28 02:23:21;;;;;;;8.43;4.30;;;16.20;1.00;;;;;;5097201;28;20431;-54
2022/08/28 02:25:49;;;;;;;8.87;4.40;;;16.20;1.00;;;;;;5097523;28;20509;-50
2022/08/28 02:28:19;;;;;;;8.03;4.33;;;16.10;1.00;;;;;;5096936;28;20499;-56
2022/08/28 02:30:48;;;;;;;10.30;4.80;;;15.90;1.00;;;;;;5096617;28;20533;-51
2022/08/28 02:33:16;;;;;;;9.80;4.77;;;15.90;1.00;;;;;;5096872;28;20434;-56
2022/08/28 02:35:43;;;;;;;8.57;4.50;;;15.80;1.00;;;;;;5097298;28;20461;-52
2022/08/28 02:38:11;;;;;;;10.23;4.87;;;15.80;1.00;;;;;;5097227;28;20460;-53
2022/08/28 02:40:40;;;;;;;10.10;5.40;;;15.80;1.00;;;;;;5097087;28;20488;-52
2022/08/28 02:43:31;;;;;;;10.03;5.03;;;15.80;1.00;;;;;;5097329;28;20483;-54
2022/08/28 02:46:02;;;;;;;11.93;5.80;;;15.90;1.00;;;;;;5097372;28;20500;-54
2022/08/28 02:48:31;;;;;;;10.80;5.07;;;15.90;1.00;;;;;;5097068;28;20452;-52
2022/08/28 02:50:59;;;;;;;9.03;4.73;;;15.90;1.00;;;;;;5097049;28;20461;-53
2022/08/28 02:53:27;;;;;;;7.33;4.37;;;16.00;1.00;;;;;;5097394;28;20513;-48
2022/08/28 02:55:55;;;;;;;13.27;5.50;;;16.00;1.00;;;;;;5096862;28;20447;-54
2022/08/28 02:58:25;;;;;;;8.27;5.10;;;16.00;1.00;;;;;;5096974;28;20504;-55
2022/08/28 03:01:02;;;;;;;7.80;5.30;;;16.00;1.00;;;;;;5097408;28;20457;-53
2022/08/28 03:03:31;;;;;;;7.70;5.17;;;16.00;1.00;;;;;;5097261;28;20528;-49
2022/08/28 03:05:59;;;;;;;10.70;4.83;;;16.00;1.00;;;;;;5098117;28;20559;-51
2022/08/28 03:08:27;;;;;;;12.37;6.97;;;15.90;1.00;;;;;;5101660;28;20465;-50
2022/08/28 03:10:54;;;;;;;8.17;5.50;;;16.00;1.00;;;;;;5100963;28;20462;-56
2022/08/28 03:13:22;;;;;;;9.23;5.80;;;15.90;1.00;;;;;;5100293;28;20507;-55
2022/08/28 03:15:49;;;;;;;11.03;5.60;;;15.90;1.00;;;;;;5100962;28;20560;-55
2022/08/28 03:18:18;;;;;;;10.53;5.50;;;15.90;1.00;;;;;;5101251;28;20460;-53
2022/08/28 03:20:47;;;;;;;9.00;5.17;;;15.90;1.00;;;;;;5100461;28;20507;-51
2022/08/28 03:23:27;;;;;;;9.33;5.27;;;15.90;1.00;;;;;;5100452;28;20468;-52
2022/08/28 03:25:55;;;;;;;12.97;6.43;;;15.90;1.00;;;;;;5100601;28;20491;-49
2022/08/28 03:28:23;;;;;;;12.63;5.10;;;15.80;1.00;;;;;;5101470;28;20739;-50
2022/08/28 03:30:51;;;;;;;10.93;4.77;;;15.70;1.00;;;;;;5100743;28;20901;-50
2022/08/28 03:33:19;;;;;;;9.10;6.10;;;15.60;1.00;;;;;;5100844;28;20510;-48
2022/08/28 03:35:47;;;;;;;15.90;5.57;;;15.60;1.00;;;;;;5100384;28;20749;-52
2022/08/28 03:38:15;;;;;;;12.00;5.93;;;15.60;1.00;;;;;;5100940;28;20847;-48
2022/08/28 03:40:50;;;;;;;10.50;5.33;;;15.50;1.00;;;;;;5100231;28;20455;-49
2022/08/28 03:43:19;;;;;;;11.40;5.87;;;15.40;1.00;;;;;;5100497;28;20480;-53
2022/08/28 03:45:57;;;;;;;10.53;4.90;;;15.40;1.00;;;;;;5100240;28;20570;-52
2022/08/28 03:48:25;;;;;;;10.10;5.80;;;15.40;1.00;;;;;;5100719;28;20492;-51
2022/08/28 03:50:58;;;;;;;8.73;5.87;;;15.20;1.00;;;;;;5100271;28;20460;-48
2022/08/28 03:53:28;;;;;;;15.90;5.13;;;15.20;1.00;;;;;;5100077;28;20461;-47
2022/08/28 03:55:57;;;;;;;13.10;6.10;;;15.20;1.00;;;;;;5100538;28;20787;-49
2022/08/28 03:58:26;;;;;;;13.10;6.80;;;15.20;1.00;;;;;;5100763;28;20879;-50
2022/08/28 04:00:54;;;;;;;11.80;6.43;;;15.20;1.00;;;;;;5100148;28;20837;-54
2022/08/28 04:03:22;;;;;;;14.63;6.00;;;15.30;1.00;;;;;;5100143;28;20464;-54
2022/08/28 04:05:49;;;;;;;13.03;5.90;;;15.20;1.00;;;;;;5100203;28;20567;-53
2022/08/28 04:08:20;;;;;;;12.43;5.60;;;15.30;1.00;;;;;;5100417;28;20889;-50
2022/08/28 04:10:52;;;;;;;10.40;5.10;;;15.20;1.00;;;;;;5100321;28;20465;-50
2022/08/28 04:13:22;;;;;;;17.13;6.03;;;15.20;1.00;;;;;;5099300;28;20468;-50
2022/08/28 04:15:57;;;;;;;12.03;6.53;;;15.20;1.00;;;;;;5099205;28;20460;-53
2022/08/28 04:18:25;;;;;;;11.00;5.20;;;15.10;1.00;;;;;;5100188;28;20471;-50
2022/08/28 04:20:59;;;;;;;13.40;5.97;;;15.00;1.00;;;;;;5100161;28;20487;-54
2022/08/28 04:23:30;;;;;;;10.13;6.10;;;14.90;1.00;;;;;;5099402;28;20781;-53
2022/08/28 04:25:58;;;;;;;13.33;5.70;;;14.90;1.00;;;;;;5099863;28;20550;-54
2022/08/28 04:28:26;;;;;;;10.10;6.03;;;14.90;1.00;;;;;;5100001;28;20895;-53
2022/08/28 04:30:54;;;;;;;10.50;6.27;;;14.70;1.00;;;;;;5100230;28;20463;-50
2022/08/28 04:33:22;;;;;;;14.57;6.00;;;14.70;1.00;;;;;;5099310;28;20502;-49
2022/08/28 04:35:49;;;;;;;11.70;6.40;;;14.70;1.00;;;;;;5098747;28;20452;-57
2022/08/28 04:38:16;;;;;;;10.77;6.00;;;14.70;1.00;;;;;;5099329;28;20503;-51
2022/08/28 04:40:45;;;;;;;10.37;6.03;;;14.70;1.00;;;;;;5099743;28;20913;-53
2022/08/28 04:43:13;;;;;;;8.83;5.33;;;14.60;1.00;;;;;;5099469;28;20488;-53
2022/08/28 04:45:42;;;;;;;10.17;6.23;;;14.50;1.00;;;;;;5098495;28;20875;-50
2022/08/28 04:48:14;;;;;;;8.03;5.03;;;14.50;1.00;;;;;;5099166;28;20435;-51
2022/08/28 04:50:44;;;;;;;10.83;6.10;;;14.40;1.00;;;;;;5099890;28;20731;-49
2022/08/28 04:53:12;;;;;;;10.30;5.17;;;14.50;1.00;;;;;;5099574;28;20542;-51
2022/08/28 04:55:42;;;;;;;15.67;6.00;;;14.50;1.00;;;;;;5099612;28;20453;-48
2022/08/28 04:58:15;;;;;;;12.07;6.10;;;14.50;1.00;;;;;;5098165;28;20518;-53
2022/08/28 05:00:44;;;;;;;9.03;5.30;;;14.50;1.00;;;;;;5099485;28;20747;-52
2022/08/28 05:03:11;;;;;;;15.20;6.03;;;14.40;1.00;;;;;;5099576;28;20431;-48
2022/08/28 05:05:42;;;;;;;12.97;6.10;;;14.40;1.00;;;;;;5099106;28;20492;-50
2022/08/28 05:08:09;;;;;;;8.57;4.97;;;14.40;1.00;;;;;;5098306;28;20510;-53
2022/08/28 05:10:36;;;;;;;8.80;5.60;;;14.50;1.00;;;;;;5098209;28;20464;-50
2022/08/28 05:13:04;;;;;;;11.80;6.03;;;14.40;1.00;;;;;;5098648;28;20513;-48
2022/08/28 05:15:33;;;;;;;7.10;4.87;;;14.50;1.00;;;;;;5098152;28;20590;-51
2022/08/28 05:18:01;;;;;;;9.70;4.93;;;14.50;1.00;;;;;;5098565;28;20471;-53
2022/08/28 05:20:29;;;;;;;12.37;5.70;;;14.60;1.00;;;;;;5098958;28;20584;-52
2022/08/28 05:22:57;;;;;;;11.83;5.73;;;14.60;1.00;;;;;;5097971;28;20457;-53
2022/08/28 05:25:25;;;;;;;12.53;5.27;;;14.60;1.00;;;;;;5098490;28;20503;-52
2022/08/28 05:27:52;;;;;;;13.50;4.83;;;14.70;1.00;;;;;;5098148;28;21793;-53
2022/08/28 05:30:20;;;;;;;11.80;5.40;;;14.80;1.00;;;;;;5098102;28;20474;-54
2022/08/28 05:32:49;;;;;;;9.67;5.40;;;14.80;1.00;;;;;;5098612;28;20818;-50
2022/08/28 05:35:16;;;;;;;9.23;4.77;;;14.90;1.00;;;;;;5098689;28;20457;-50
2022/08/28 05:37:43;;;;;;;13.70;6.07;;;15.00;1.00;;;;;;5098041;28;20477;-51
2022/08/28 05:40:11;;;;;;;13.90;5.30;;;14.90;1.00;;;;;;5097935;28;20506;-50
2022/08/28 05:42:39;;;;;;;10.00;5.17;;;15.00;1.00;;;;;;5098357;28;20552;-50
2022/08/28 05:45:10;;;;;;;9.70;4.93;;;15.00;1.00;;;;;;5098040;28;20557;-54
2022/08/28 05:47:37;;;;;;;9.93;4.77;;;15.20;1.00;;;;;;5098469;28;20471;-47
2022/08/28 05:50:07;;;;;;;8.67;5.20;;;15.20;1.00;;;;;;5097540;28;20439;-56
2022/08/28 05:52:35;;;;;;;9.93;5.30;;;15.30;1.00;;;;;;5096252;28;20480;-52
2022/08/28 05:55:06;;;;;;;12.30;5.80;;;15.30;1.00;;;;;;5092490;28;20466;-50
2022/08/28 05:57:36;;;;;;;11.27;5.50;;;15.20;1.00;;;;;;5077799;28;20907;-53
2022/08/28 06:00:05;;;;;;;9.63;4.83;;;15.20;1.00;;;;;;5088515;28;20585;-48
2022/08/28 06:02:33;;;;;;;8.73;5.50;;;15.20;1.00;;;;;;5078142;28;20527;-50
2022/08/28 06:05:01;;;;;;;12.30;5.40;;;15.20;1.00;;;;;;5084199;28;20500;-50
2022/08/28 06:07:33;;;;;;;11.70;5.30;;;15.30;1.00;;;;;;5076552;28;20446;-50
2022/08/28 06:10:00;;;;;;;10.00;5.87;;;15.30;1.00;;;;;;5077607;28;20452;-51
2022/08/28 06:12:29;;;;;;;7.53;5.47;;;15.30;1.00;;;;;;5087450;28;20461;-53
2022/08/28 06:14:57;;;;;;;7.60;4.57;;;15.50;1.00;;;;;;5097177;28;20816;-50
2022/08/28 06:17:26;;;;;;;11.10;4.90;;;15.40;1.00;;;;;;5078980;28;20895;-50
2022/08/28 06:19:54;;;;;;;9.83;4.53;;;15.50;1.00;;;;;;5095914;28;20475;-55
2022/08/28 06:22:25;;;;;;;7.43;4.63;;;15.40;1.00;;;;;;5097618;28;20454;-54
2022/08/28 06:24:56;;;;;;;16.13;5.13;;;15.40;1.00;;;;;;5097164;28;20577;-54
2022/08/28 06:27:23;;;;;;;11.63;5.27;;;15.40;1.00;;;;;;5097274;28;20570;-53
2022/08/28 06:29:51;;;;;;;8.60;4.87;;;15.40;1.00;;;;;;5097135;28;20510;-55
2022/08/28 06:32:18;;;;;;;12.20;4.93;;;15.60;1.00;;;;;;5097043;28;20874;-54
2022/08/28 06:34:45;;;;;;;12.00;4.70;;;15.70;1.00;;;;;;5097681;28;20503;-53
2022/08/28 06:37:14;;;;;;;8.50;4.77;;;15.80;1.00;;;;;;5097402;28;20439;-48
2022/08/28 06:39:41;;;;;;;8.80;4.80;;;15.90;1.00;;;;;;5097510;28;20435;-53
2022/08/28 06:42:10;;;;;;;9.17;4.40;;;16.20;1.00;;;;;;5096532;28;20469;-57
2022/08/28 06:44:42;;;;;;;10.97;4.70;;;16.50;1.00;;;;;;5097510;28;20811;-53
2022/08/28 06:47:10;;;;;;;13.00;5.87;;;16.70;1.00;;;;;;5080388;28;20846;-49
2022/08/28 06:49:40;;;;;;;14.87;5.10;;;17.00;1.00;;;;;;5076804;28;20511;-53
2022/08/28 06:52:07;;;;;;;12.60;5.23;;;17.30;1.00;;;;;;5091892;28;20483;-52
2022/08/28 06:54:36;;;;;;;7.60;4.77;;;17.40;99.90;;;;;;5091756;28;20447;-57
2022/08/28 06:57:05;;;;;;;7.60;4.07;;;17.60;99.90;;;;;;5093399;28;20486;-51
2022/08/28 06:59:34;;;;;;;10.17;5.10;;;17.50;99.90;;;;;;5082082;28;20556;-54
2022/08/28 07:02:02;;;;;;;10.20;4.70;;;17.50;99.90;;;;;;5093239;28;20510;-53
2022/08/28 07:04:29;;;;;;;8.40;5.00;;;17.80;99.90;;;;;;5096385;28;20738;-51
2022/08/28 07:06:57;;;;;;;7.37;4.80;;;17.80;99.90;;;;;;5096554;28;20557;-51
2022/08/28 07:09:27;;;;;;;9.83;4.50;;;17.60;99.90;;;;;;5096343;28;20922;-54
2022/08/28 07:11:54;;;;;;;10.53;4.77;;;17.50;99.90;;;;;;5096147;28;20720;-51
2022/08/28 07:14:23;;;;;;;7.13;4.30;;;17.50;99.90;;;;;;5096221;28;20488;-51
2022/08/28 07:16:52;;;;;;;9.00;4.50;;;17.30;99.90;;;;;;5086334;28;20500;-54
2022/08/28 07:19:19;;;;;;;12.13;4.87;;;17.10;99.90;;;;;;5095595;28;20563;-56
2022/08/28 07:21:47;;;;;;;11.13;4.70;;;17.30;99.90;;;;;;5077478;28;20493;-57
2022/08/28 07:24:18;;;;;;;9.33;4.70;;;17.30;99.90;;;;;;5085228;28;20508;-56
2022/08/28 07:26:46;;;;;;;8.57;5.10;;;17.30;99.90;;;;;;5079798;28;20572;-56
2022/08/28 07:29:17;;;;;;;6.40;4.07;;;17.20;99.90;;;;;;5075166;28;20470;-53
2022/08/28 07:31:49;;;;;;;7.87;4.83;;;17.20;99.90;;;;;;5084613;28;20460;-56
2022/08/28 07:34:21;;;;;;;10.17;4.97;;;17.10;99.90;;;;;;5095545;28;20461;-51
2022/08/28 07:36:51;;;;;;;6.90;4.07;;;17.00;99.90;;;;;;5095958;28;20492;-56
2022/08/28 07:39:19;;;;;;;10.63;4.23;;;16.60;99.90;;;;;;5093416;28;20473;-55
2022/08/28 07:41:47;;;;;;;8.30;4.10;;;16.70;1.00;;;;;;5096514;28;20464;-57
2022/08/28 07:47:06;;;;;;;9.27;4.10;;;16.70;99.90;;;;;;5096153;28;20484;-53
2022/08/28 07:49:38;;;;;;;7.70;4.40;;;16.90;1.00;;;;;;5096591;28;20901;-54
2022/08/28 07:52:06;;;;;;;7.70;3.53;;;17.00;99.90;;;;;;5097899;28;20434;-55
2022/08/28 07:54:39;;;;;;;11.00;3.80;;;17.20;99.90;;;;;;5099288;28;20865;-49
2022/08/28 07:57:12;;;;;;;8.97;4.80;;;17.30;99.90;;;;;;5098635;28;20924;-52
2022/08/28 07:59:39;;;;;;;10.27;5.50;;;17.50;99.90;;;;;;5099619;28;20766;-57
2022/08/28 08:02:09;;;;;;;8.90;4.57;;;17.70;99.90;;;;;;5083611;28;20948;-55
2022/08/28 08:04:41;;;;;;;12.50;5.80;;;17.70;99.90;;;;;;5098384;28;20581;-54
2022/08/28 08:07:11;;;;;;;14.77;4.37;;;17.80;99.90;;;;;;5100387;28;20496;-55
2022/08/28 08:09:45;;;;;;;6.47;3.47;;;17.90;99.90;;;;;;5099864;28;20467;-55
2022/08/28 08:12:14;;;;;;;7.50;4.33;;;18.20;99.90;;;;;;5100676;28;20881;-55
2022/08/28 08:14:42;;;;;;;8.50;4.10;;;18.50;99.90;;;;;;5083239;28;20495;-53
2022/08/28 08:17:10;;;;;;;6.13;3.30;;;19.30;99.90;;;;;;5098374;28;20919;-55
2022/08/28 08:19:42;;;;;;;10.17;4.73;;;20.20;99.90;;;;;;5094824;28;20555;-56
2022/08/28 08:22:11;;;;;;;9.33;5.27;;;20.70;99.90;;;;;;5099690;28;20589;-56
2022/08/28 08:24:38;;;;;;;8.77;4.63;;;20.80;99.90;;;;;;5098981;28;20483;-54
2022/08/28 08:27:09;;;;;;;6.83;4.37;;;20.40;99.90;;;;;;5094873;28;20965;-57
2022/08/28 08:29:38;;;;;;;7.60;5.37;;;20.20;99.90;;;;;;5079923;28;20497;-56
2022/08/28 08:32:07;;;;;;;10.33;7.40;;;19.90;99.90;;;;;;5098385;28;20472;-52
2022/08/28 08:34:37;;;;;;;5.93;5.43;;;19.90;99.90;;;;;;5098239;28;20842;-57
2022/08/28 08:37:10;;;;;;;9.47;5.70;;;20.60;99.90;;;;;;5079096;28;20476;-56
2022/08/28 08:39:41;;;;;;;6.87;4.70;;;21.10;99.90;;;;;;5089229;28;20468;-52
2022/08/28 08:42:24;;;;;;;6.07;5.20;;;21.70;99.90;;;;;;5099774;28;20490;-58
2022/08/28 08:44:59;;;;;;;6.50;4.20;;;22.00;99.90;;;;;;5099433;28;20468;-57
2022/08/28 08:47:35;;;;;;;8.47;4.53;;;22.20;99.90;;;;;;5085272;28;20519;-58
2022/08/28 08:50:12;;;;;;;5.67;3.00;;;22.80;99.90;;;;;;5081963;28;20480;-56
2022/08/28 08:52:57;;;;;;;8.53;3.67;;;23.20;99.90;;;;;;5081494;28;20493;-58
2022/08/28 08:55:27;;;;;;;5.20;3.90;;;23.20;99.90;;;;;;5080225;28;20514;-55
2022/08/28 08:58:02;;;;;;;6.27;4.00;;;23.80;99.90;;;;;;5098412;28;20435;-58
2022/08/28 09:00:36;;;;;;;6.70;4.03;;;24.20;99.90;;;;;;5096396;28;20456;-57
2022/08/28 09:03:09;;;;;;;9.53;4.00;;;24.00;99.90;;;;;;5096729;28;20435;-55
2022/08/28 09:05:50;;;;;;;7.83;4.27;;;23.90;99.90;;;;;;5078434;28;20436;-58
2022/08/28 09:08:43;;;;;;;10.80;4.23;;;23.70;99.90;;;;;;5099499;28;20540;-54
2022/08/28 09:11:24;;;;;;;5.00;3.23;;;23.50;99.90;;;;;;5098103;28;20435;-58
2022/08/28 09:14:02;;;;;;;5.17;3.87;;;22.50;99.90;;;;;;5098949;28;20460;-58
2022/08/28 09:16:39;;;;;;;6.00;3.80;;;22.10;99.90;;;;;;5098301;28;20483;-57
2022/08/28 09:19:10;;;;;;;5.60;4.67;;;22.40;99.90;;;;;;5097907;28;20460;-58
2022/08/28 09:21:41;;;;;;;11.17;5.27;;;21.70;99.90;;;;;;5097794;28;20874;-58
2022/08/28 09:24:20;;;;;;;7.70;5.07;;;22.50;99.90;;;;;;5097073;28;20544;-58
2022/08/28 09:26:56;;;;;;;7.80;5.27;;;23.30;99.90;;;;;;5097771;28;20567;-56
2022/08/28 09:29:31;;;;;;;5.77;5.20;;;23.80;99.90;;;;;;5098221;28;20434;-56
2022/08/28 09:32:20;;;;;;;6.20;4.93;;;23.60;99.90;;;;;;5098889;28;20512;-57
2022/08/28 09:35:08;;;;;;;7.10;5.30;;;23.50;99.90;;;;;;5098354;28;20460;-58
2022/08/28 09:37:36;;;;;;;6.27;4.57;;;24.20;99.90;;;;;;5098220;28;20543;-59
2022/08/28 09:40:22;;;;;;;6.70;5.53;;;23.40;99.90;;;;;;5098411;28;20551;-59
2022/08/28 09:45:58;;;;;;;4.87;4.03;;;24.70;99.90;;;;;;5077371;28;20724;-57
2022/08/28 09:48:33;;;;;;;11.30;4.60;;;24.60;99.90;;;;;;5087472;28;20464;-56
2022/08/28 09:51:04;;;;;;;6.93;3.63;;;25.10;99.90;;;;;;5097884;28;20470;-58
2022/08/28 09:53:37;;;;;;;6.70;3.90;;;24.30;99.90;;;;;;5096612;28;20508;-58
2022/08/28 09:56:17;;;;;;;6.03;3.83;;;23.00;99.90;;;;;;5097662;28;20488;-58
2022/08/28 09:58:50;;;;;;;6.37;3.73;;;23.60;99.90;;;;;;5097646;28;20490;-54
2022/08/28 10:01:34;;;;;;;7.03;3.93;;;24.60;99.90;;;;;;5097995;28;20810;-58
2022/08/28 10:04:16;;;;;;;8.13;4.13;;;25.30;99.90;;;;;;5087961;28;20523;-58
2022/08/28 10:06:51;;;;;;;5.37;4.27;;;24.80;99.90;;;;;;5077289;28;20488;-58
2022/08/28 10:09:28;;;;;;;5.17;3.60;;;24.50;99.90;;;;;;5094451;28;20974;-58
2022/08/28 10:12:05;;;;;;;4.27;3.10;;;24.40;99.90;;;;;;5097846;28;20484;-58
2022/08/28 10:14:48;;;;;;;5.73;3.80;;;24.60;99.90;;;;;;5097335;28;20499;-58
2022/08/28 10:17:29;;;;;;;7.63;4.50;;;24.80;99.90;;;;;;5097736;28;20460;-57
2022/08/28 10:20:07;;;;;;;5.77;3.53;;;24.80;99.90;;;;;;5097729;28;20456;-58
2022/08/28 10:22:43;;;;;;;9.03;4.20;;;24.20;99.90;;;;;;5097813;28;20509;-59
2022/08/28 10:25:26;;;;;;;6.37;3.60;;;23.70;99.90;;;;;;5096958;28;20827;-58
2022/08/28 10:28:21;;;;;;;7.13;4.00;;;21.60;99.90;;;;;;5097042;28;20515;-58
2022/08/28 10:30:58;;;;;;;6.60;3.47;;;22.60;99.90;;;;;;5097694;28;20517;-53
2022/08/28 10:33:44;;;;;;;8.53;3.80;;;23.50;99.90;;;;;;5097528;28;20474;-58
2022/08/28 10:36:18;;;;;;;6.23;3.50;;;24.00;99.90;;;;;;5096234;28;20431;-59
2022/08/28 10:38:53;;;;;;;6.37;4.30;;;23.90;99.90;;;;;;5097194;28;20519;-59
2022/08/28 10:41:25;;;;;;;8.90;3.60;;;24.70;99.90;;;;;;5096855;28;20488;-59
2022/08/28 10:44:00;;;;;;;5.73;3.50;;;25.00;99.90;;;;;;5097609;28;20924;-59
2022/08/28 10:46:34;;;;;;;4.77;3.27;;;24.30;99.90;;;;;;5096929;28;20578;-58
2022/08/28 10:49:08;;;;;;;6.90;3.57;;;24.90;99.90;;;;;;5097244;28;20589;-59
2022/08/28 10:51:44;;;;;;;6.37;3.93;;;26.00;99.90;;;;;;5096951;28;20435;-58
2022/08/28 10:54:20;;;;;;;5.83;4.17;;;26.70;99.90;;;;;;5097610;28;20573;-58
2022/08/28 10:56:56;;;;;;;6.73;3.17;;;25.40;99.90;;;;;;5096791;28;20822;-58
2022/08/28 10:59:32;;;;;;;5.20;3.60;;;25.00;99.90;;;;;;5097116;28;20563;-58
2022/08/28 11:02:01;;;;;;;3.90;3.23;;;25.50;99.90;;;;;;5082362;28;20469;-58
2022/08/28 11:04:30;;;;;;;4.47;3.10;;;24.00;99.90;;;;;;5076597;28;20493;-59
2022/08/28 11:07:01;;;;;;;4.40;3.13;;;23.40;99.90;;;;;;5081549;28;20488;-59
2022/08/28 11:09:33;;;;;;;4.53;2.93;;;23.60;99.90;;;;;;5096448;28;20526;-57
2022/08/28 11:12:09;;;;;;;6.30;3.70;;;24.70;99.90;;;;;;5096433;28;20471;-59
2022/08/28 11:14:40;;;;;;;8.67;4.30;;;25.80;99.90;;;;;;5097489;28;20442;-58
2022/08/28 11:17:31;;;;;;;4.33;3.70;;;26.60;99.90;;;;;;5096250;28;20743;-57
2022/08/28 11:20:14;;;;;;;4.57;3.27;;;27.10;99.90;;;;;;5096915;28;20466;-58
2022/08/28 11:22:46;;;;;;;4.97;3.20;;;26.40;99.90;;;;;;5096676;28;20852;-57
2022/08/28 11:25:18;;;;;;;5.23;3.33;;;26.90;99.90;;;;;;5096926;28;20488;-58
2022/08/28 11:28:15;;;;;;;6.27;3.20;;;27.50;99.90;;;;;;5097998;28;20542;-58
2022/08/28 11:30:48;;;;;;;4.90;3.07;;;27.50;99.90;;;;;;5089142;28;20527;-59
2022/08/28 11:33:35;;;;;;;5.00;3.50;;;26.70;99.90;;;;;;5094446;28;20434;-59
2022/08/28 11:36:10;;;;;;;6.90;3.50;;;25.10;99.90;;;;;;5102730;28;20755;-59
2022/08/28 11:39:20;;;;;;;5.07;3.50;;;25.00;99.90;;;;;;5099988;28;20558;-59
2022/08/28 11:42:28;;;;;;;4.23;3.37;;;24.90;99.90;;;;;;5100373;28;20471;-58
2022/08/28 11:45:00;;;;;;;4.93;3.13;;;24.10;99.90;;;;;;5100892;28;20441;-58
2022/08/28 11:47:50;;;;;;;3.70;3.40;;;24.50;99.90;;;;;;5098706;28;20459;-59
2022/08/28 11:50:23;;;;;;;6.40;3.50;;;25.60;99.90;;;;;;5099592;28;20463;-59
2022/08/28 11:53:29;;;;;;;4.47;3.60;;;26.20;99.90;;;;;;5101224;28;20456;-58
2022/08/28 11:56:34;;;;;;;6.20;3.40;;;26.90;99.90;;;;;;5080109;28;20507;-55
2022/08/28 11:59:31;;;;;;;5.70;3.10;;;27.60;99.90;;;;;;5096289;28;20476;-57
2022/08/28 12:02:38;;;;;;;3.83;2.90;;;28.10;99.90;;;;;;5099770;28;20923;-58
2022/08/28 12:05:09;;;;;;;3.60;3.00;;;25.90;99.90;;;;;;5099637;28;20504;-58
2022/08/28 12:07:39;;;;;;;4.40;3.40;;;26.20;99.90;;;;;;5100007;28;20502;-59
2022/08/28 12:10:55;;;;;;;5.20;3.40;;;26.40;99.90;;;;;;5099435;28;20495;-59
2022/08/28 12:13:49;;;;;;;4.30;2.87;;;27.00;99.90;;;;;;5099856;28;20946;-57
2022/08/28 12:16:21;;;;;;;4.93;3.07;;;25.70;99.90;;;;;;5100179;28;20521;-55
2022/08/28 12:19:02;;;;;;;6.47;3.00;;;25.70;99.90;;;;;;5100272;28;20445;-55
2022/08/28 12:21:41;;;;;;;4.43;3.53;;;25.90;99.90;;;;;;5099596;28;20520;-56
2022/08/28 12:24:21;;;;;;;3.73;2.70;;;27.00;99.90;;;;;;5106205;28;20880;-57
2022/08/28 12:26:55;;;;;;;4.53;2.90;;;27.60;99.90;;;;;;5099543;28;20799;-51
2022/08/28 12:29:30;;;;;;;4.27;3.13;;;27.90;99.90;;;;;;5100215;28;20818;-50
2022/08/28 12:32:17;;;;;;;4.20;2.90;;;27.80;99.90;;;;;;5095998;28;20965;-58
2022/08/28 12:35:07;;;;;;;4.63;3.00;;;26.40;99.90;;;;;;5085226;28;20832;-51
2022/08/28 12:37:39;;;;;;;8.00;2.97;;;25.30;99.90;;;;;;5092625;28;20450;-57
2022/08/28 12:40:17;;;;;;;6.63;2.90;;;25.70;99.90;;;;;;5099676;28;20495;-58
2022/08/28 12:42:52;;;;;;;6.37;3.70;;;26.60;99.90;;;;;;5099026;28;20445;-58
2022/08/28 12:45:29;;;;;;;4.47;3.10;;;26.10;99.90;;;;;;5095622;28;20484;-56
2022/08/28 12:48:00;;;;;;;4.20;2.70;;;26.90;99.90;;;;;;5093347;28;20492;-54
2022/08/28 12:50:31;;;;;;;5.63;3.20;;;26.80;99.90;;;;;;5098888;28;20479;-54
2022/08/28 12:53:03;;;;;;;3.43;2.77;;;25.20;99.90;;;;;;5098227;28;20559;-55
2022/08/28 12:55:33;;;;;;;4.50;3.07;;;24.60;99.90;;;;;;5097733;28;20537;-58
2022/08/28 12:58:04;;;;;;;2.87;2.27;;;25.70;99.90;;;;;;5092745;28;20468;-56
2022/08/28 13:00:36;;;;;;;4.03;3.20;;;25.30;99.90;;;;;;5099087;28;20437;-56
2022/08/28 13:03:07;;;;;;;3.20;2.60;;;26.40;99.90;;;;;;5098276;28;20834;-56
2022/08/28 13:05:40;;;;;;;3.57;2.90;;;27.20;99.90;;;;;;5099052;28;20852;-56
2022/08/28 13:08:11;;;;;;;6.70;3.60;;;28.10;99.90;;;;;;5098919;28;20947;-52
2022/08/28 13:10:44;;;;;;;3.93;3.37;;;26.50;99.90;;;;;;5098323;28;20452;-50
2022/08/28 13:13:20;;;;;;;6.13;3.27;;;27.40;99.90;;;;;;5093817;28;20464;-57
2022/08/28 13:16:00;;;;;;;5.53;3.00;;;27.10;99.90;;;;;;5098222;28;20933;-52
2022/08/28 13:18:43;;;;;;;5.80;2.90;;;27.50;99.90;;;;;;5098443;28;20726;-58
2022/08/28 13:21:38;;;;;;;4.90;3.00;;;27.80;99.90;;;;;;5095854;28;20556;-55
2022/08/28 13:24:27;;;;;;;4.90;2.77;;;28.40;99.90;;;;;;5094712;28;20492;-57